createdAt,value
2023-03-16T00:02:05.737Z,7.80
2023-03-16T00:04:37.235Z,7.80
2023-03-16T00:07:09.067Z,8.90
2023-03-16T00:09:40.742Z,7.87
2023-03-16T00:12:16.383Z,8.20
2023-03-16T00:14:48.210Z,8.87
2023-03-16T00:17:20.880Z,8.43
2023-03-16T00:19:55.188Z,8.30
2023-03-16T00:22:27.378Z,9.10
2023-03-16T00:24:54.752Z,9.10
2023-03-16T00:27:23.936Z,8.63
2023-03-16T00:29:56.005Z,8.97
2023-03-16T00:32:27.263Z,8.43
2023-03-16T00:34:54.518Z,5.23
2023-03-16T00:37:23.512Z,5.40
2023-03-16T00:39:51.631Z,4.83
2023-03-16T00:42:20.072Z,3.90
2023-03-16T00:44:47.096Z,3.87
2023-03-16T00:47:14.496Z,3.67
2023-03-16T00:49:43.326Z,4.43
2023-03-16T00:52:16.049Z,4.17
2023-03-16T00:54:44.719Z,4.03
2023-03-16T00:57:12.844Z,3.83
2023-03-16T00:59:39.928Z,4.50
2023-03-16T01:02:08.266Z,4.30
2023-03-16T01:04:36.429Z,3.53
2023-03-16T01:07:04.841Z,4.37
2023-03-16T01:09:36.818Z,4.10
2023-03-16T01:12:13.383Z,4.10
2023-03-16T01:14:40.473Z,4.30
2023-03-16T01:17:10.833Z,4.17
2023-03-16T01:19:37.896Z,4.70
2023-03-16T01:22:09.893Z,4.00
2023-03-16T01:24:37.553Z,3.93
2023-03-16T01:27:05.524Z,4.20
2023-03-16T01:29:33.091Z,4.20
2023-03-16T01:32:00.709Z,4.03
2023-03-16T01:34:27.886Z,4.00
2023-03-16T01:36:55.057Z,4.70
2023-03-16T01:39:22.174Z,5.10
2023-03-16T01:41:49.433Z,5.40
2023-03-16T01:44:22.319Z,4.50
2023-03-16T01:46:49.173Z,7.10
2023-03-16T01:49:37.416Z,6.43
2023-03-16T01:52:12.575Z,6.70
2023-03-16T01:54:52.675Z,6.50
2023-03-16T01:57:25.900Z,7.57
2023-03-16T01:59:55.646Z,5.40
2023-03-16T02:02:27.110Z,7.93
2023-03-16T02:05:13.932Z,7.57
2023-03-16T02:07:44.513Z,8.20
2023-03-16T02:10:14.014Z,8.93
2023-03-16T02:12:40.776Z,8.43
2023-03-16T02:15:08.050Z,7.50
2023-03-16T02:17:35.880Z,8.47
2023-03-16T02:20:14.459Z,8.00
2023-03-16T02:22:47.540Z,8.10
2023-03-16T02:25:17.207Z,8.73
2023-03-16T02:28:04.273Z,7.07
2023-03-16T02:30:31.482Z,7.90
2023-03-16T02:32:58.684Z,6.80
2023-03-16T02:35:25.747Z,7.47
2023-03-16T02:37:52.672Z,8.00
2023-03-16T02:40:27.759Z,8.07
2023-03-16T02:43:02.868Z,7.57
2023-03-16T02:45:36.798Z,8.60
2023-03-16T02:48:09.649Z,7.03
2023-03-16T02:50:37.050Z,8.57
2023-03-16T02:53:03.719Z,8.60
2023-03-16T02:55:30.854Z,7.83
2023-03-16T02:57:57.975Z,8.60
2023-03-16T03:00:24.755Z,8.10
2023-03-16T03:02:52.582Z,8.97
2023-03-16T03:05:20.365Z,7.90
2023-03-16T03:07:47.471Z,8.00
2023-03-16T03:10:14.208Z,8.13
2023-03-16T03:12:41.394Z,8.40
2023-03-16T03:15:08.839Z,7.90
2023-03-16T03:17:37.415Z,8.03
2023-03-16T03:20:13.559Z,8.03
2023-03-16T03:22:40.607Z,7.77
2023-03-16T03:25:08.817Z,7.80
2023-03-16T03:27:35.981Z,7.50
2023-03-16T03:30:03.206Z,7.80
2023-03-16T03:32:30.155Z,7.83
2023-03-16T03:34:57.094Z,8.43
2023-03-16T03:37:24.843Z,7.80
2023-03-16T03:39:53.403Z,7.40
2023-03-16T03:42:20.171Z,8.20
2023-03-16T03:44:46.861Z,8.60
2023-03-16T03:47:14.054Z,7.80
2023-03-16T03:49:40.955Z,8.57
2023-03-16T03:52:07.844Z,8.00
2023-03-16T03:54:34.910Z,7.53
2023-03-16T03:57:01.752Z,7.80
2023-03-16T03:59:28.820Z,8.00
2023-03-16T04:01:55.920Z,7.97
2023-03-16T04:04:23.107Z,8.23
2023-03-16T04:06:51.180Z,7.20
2023-03-16T04:09:18.053Z,7.73
2023-03-16T04:11:44.813Z,8.03
2023-03-16T04:14:11.938Z,7.90
2023-03-16T04:16:39.087Z,7.87
2023-03-16T04:19:05.786Z,7.70
2023-03-16T04:21:32.902Z,7.50
2023-03-16T04:24:00.155Z,8.67
2023-03-16T04:26:26.862Z,8.60
2023-03-16T04:28:53.943Z,8.07
2023-03-16T04:31:21.129Z,8.73
2023-03-16T04:33:48.243Z,9.17
2023-03-16T04:36:15.389Z,10.30
2023-03-16T04:38:42.512Z,7.83
2023-03-16T04:41:11.374Z,7.60
2023-03-16T04:43:38.497Z,7.47
2023-03-16T04:46:06.517Z,8.17
2023-03-16T04:48:33.314Z,8.03
2023-03-16T04:51:01.469Z,8.50
2023-03-16T04:53:28.979Z,8.27
2023-03-16T04:55:56.137Z,7.60
2023-03-16T04:58:23.231Z,8.00
2023-03-16T05:00:52.118Z,8.37
2023-03-16T05:03:19.452Z,8.63
2023-03-16T05:05:47.314Z,8.03
2023-03-16T05:08:14.460Z,9.00
2023-03-16T05:10:41.614Z,9.17
2023-03-16T05:13:08.471Z,10.90
2023-03-16T05:15:35.616Z,11.00
2023-03-16T05:18:02.289Z,12.73
2023-03-16T05:20:29.234Z,12.97
2023-03-16T05:22:56.038Z,13.70
2023-03-16T05:25:22.775Z,16.47
2023-03-16T05:27:51.922Z,15.87
2023-03-16T05:30:19.142Z,12.07
2023-03-16T05:32:46.430Z,7.00
2023-03-16T05:35:13.849Z,5.93
2023-03-16T05:37:42.279Z,4.00
2023-03-16T05:40:14.303Z,3.70
2023-03-16T05:42:41.092Z,5.50
2023-03-16T05:45:08.473Z,4.40
2023-03-16T05:47:37.211Z,3.40
2023-03-16T05:50:05.474Z,3.30
2023-03-16T05:52:33.853Z,4.37
2023-03-16T05:55:00.728Z,3.97
2023-03-16T05:57:27.893Z,4.37
2023-03-16T05:59:54.606Z,4.40
2023-03-16T06:02:21.364Z,5.03
2023-03-16T06:04:48.599Z,4.87
2023-03-16T06:07:15.767Z,4.03
2023-03-16T06:09:42.932Z,4.10
2023-03-16T06:12:10.237Z,3.60
2023-03-16T06:14:37.216Z,4.23
2023-03-16T06:17:04.390Z,4.17
2023-03-16T06:19:31.790Z,3.90
2023-03-16T06:21:59.029Z,3.67
2023-03-16T06:24:25.830Z,4.10
2023-03-16T06:26:52.535Z,3.90
2023-03-16T06:29:19.744Z,4.73
2023-03-16T06:31:47.026Z,4.30
2023-03-16T06:34:14.226Z,5.10
2023-03-16T06:36:41.362Z,4.67
2023-03-16T06:39:09.450Z,4.80
2023-03-16T06:41:36.684Z,5.43
2023-03-16T06:44:03.833Z,4.60
2023-03-16T06:46:33.016Z,4.20
2023-03-16T06:49:00.948Z,4.57
2023-03-16T06:51:28.228Z,4.40
2023-03-16T06:53:54.917Z,4.47
2023-03-16T06:56:22.086Z,4.50
2023-03-16T06:58:48.842Z,4.50
2023-03-16T07:01:16.177Z,3.77
2023-03-16T07:03:43.025Z,4.43
2023-03-16T07:06:09.881Z,4.30
2023-03-16T07:08:36.616Z,4.50
2023-03-16T07:11:03.906Z,3.97
2023-03-16T07:13:31.053Z,3.97
2023-03-16T07:15:57.949Z,3.97
2023-03-16T07:18:26.163Z,4.03
2023-03-16T07:20:54.312Z,4.47
2023-03-16T07:23:21.592Z,4.10
2023-03-16T07:25:48.348Z,3.90
2023-03-16T07:28:15.151Z,4.00
2023-03-16T07:30:53.223Z,3.80
2023-03-16T07:33:27.520Z,3.67
2023-03-16T07:35:54.655Z,3.40
2023-03-16T07:38:21.871Z,4.33
2023-03-16T07:40:48.713Z,4.13
2023-03-16T07:43:15.932Z,3.80
2023-03-16T07:45:43.125Z,3.80
2023-03-16T07:48:10.388Z,3.17
2023-03-16T07:50:37.149Z,3.53
2023-03-16T07:53:05.554Z,2.70
2023-03-16T07:55:32.744Z,3.60
2023-03-16T07:57:59.887Z,3.67
2023-03-16T08:00:27.037Z,3.50
2023-03-16T08:02:56.255Z,4.00
2023-03-16T08:05:23.386Z,3.77
2023-03-16T08:07:51.502Z,3.60
2023-03-16T08:10:18.715Z,4.03
2023-03-16T08:12:45.609Z,3.77
2023-03-16T08:15:12.368Z,3.50
2023-03-16T08:17:41.839Z,3.10
2023-03-16T08:20:13.848Z,3.70
2023-03-16T08:22:41.898Z,3.30
2023-03-16T08:25:10.738Z,4.10
2023-03-16T08:27:38.187Z,3.73
2023-03-16T08:30:07.450Z,3.37
2023-03-16T08:32:34.433Z,2.90
2023-03-16T08:35:01.625Z,3.90
2023-03-16T08:37:29.030Z,3.40
2023-03-16T08:39:55.761Z,3.40
2023-03-16T08:42:23.654Z,3.70
2023-03-16T08:44:50.892Z,2.93
2023-03-16T08:47:17.975Z,3.73
2023-03-16T08:49:44.806Z,2.83
2023-03-16T08:52:12.948Z,3.07
2023-03-16T08:54:45.038Z,3.00
2023-03-16T08:57:20.001Z,3.87
2023-03-16T08:59:46.711Z,3.27
2023-03-16T09:02:14.827Z,3.30
2023-03-16T09:04:41.605Z,3.23
2023-03-16T09:07:09.773Z,3.03
2023-03-16T09:09:39.525Z,3.03
2023-03-16T09:12:06.839Z,3.97
2023-03-16T09:14:33.993Z,3.37
2023-03-16T09:17:00.727Z,3.70
2023-03-16T09:19:30.701Z,3.20
2023-03-16T09:22:02.047Z,3.80
2023-03-16T09:24:29.496Z,3.27
2023-03-16T09:26:56.733Z,3.30
2023-03-16T09:29:24.534Z,3.67
2023-03-16T09:31:51.833Z,3.90
2023-03-16T09:34:18.983Z,2.93
2023-03-16T09:36:45.810Z,3.43
2023-03-16T09:39:13.361Z,3.20
2023-03-16T09:42:02.458Z,4.10
2023-03-16T09:44:32.287Z,3.10
2023-03-16T09:47:01.619Z,3.90
2023-03-16T09:49:36.271Z,3.17
2023-03-16T09:52:20.579Z,3.80
2023-03-16T09:54:47.867Z,3.40
2023-03-16T09:57:30.455Z,3.27
2023-03-16T10:00:03.162Z,3.43
2023-03-16T10:02:40.551Z,3.03
2023-03-16T10:05:14.109Z,3.20
2023-03-16T10:07:55.930Z,3.23
2023-03-16T10:10:55.113Z,3.30
2023-03-16T10:13:42.507Z,4.03
2023-03-16T10:16:15.756Z,3.63
2023-03-16T10:18:46.005Z,3.23
2023-03-16T10:21:16.904Z,3.27
2023-03-16T10:23:45.204Z,3.10
2023-03-16T10:26:24.574Z,3.70
2023-03-16T10:28:53.034Z,3.10
2023-03-16T10:31:23.607Z,3.50
2023-03-16T10:33:56.503Z,3.20
2023-03-16T10:36:33.516Z,3.10
2023-03-16T10:39:00.702Z,3.37
2023-03-16T10:41:45.374Z,3.40
2023-03-16T10:44:30.735Z,3.03
2023-03-16T10:47:04.869Z,3.33
2023-03-16T10:49:41.961Z,3.20
2023-03-16T10:52:24.972Z,3.10
2023-03-16T10:54:59.239Z,3.50
2023-03-16T10:57:27.264Z,3.40
2023-03-16T10:59:57.588Z,3.30
2023-03-16T11:02:31.856Z,3.13
2023-03-16T11:04:58.974Z,2.93
2023-03-16T11:07:29.274Z,3.60
2023-03-16T11:09:56.504Z,3.33
2023-03-16T11:12:30.195Z,3.47
2023-03-16T11:15:25.200Z,3.60
2023-03-16T11:17:56.930Z,3.17
2023-03-16T11:20:28.785Z,3.37
2023-03-16T11:22:56.236Z,4.03
2023-03-16T11:25:31.426Z,3.60
2023-03-16T11:28:13.006Z,3.30
2023-03-16T11:31:20.048Z,3.00
2023-03-16T11:33:49.087Z,3.50
2023-03-16T11:36:39.740Z,3.73
2023-03-16T11:39:40.495Z,3.43
2023-03-16T11:42:39.576Z,3.13
2023-03-16T11:45:10.058Z,3.93
2023-03-16T11:47:58.576Z,4.13
2023-03-16T11:50:45.830Z,3.70
2023-03-16T11:53:27.166Z,3.50
2023-03-16T11:56:08.029Z,3.60
2023-03-16T11:58:56.826Z,3.30
2023-03-16T12:01:54.363Z,3.33
2023-03-16T12:04:36.947Z,3.07
2023-03-16T12:07:09.209Z,3.87
2023-03-16T12:10:09.132Z,3.70
2023-03-16T12:13:14.536Z,3.20
2023-03-16T12:15:54.457Z,3.40
2023-03-16T12:18:30.335Z,3.33
2023-03-16T12:21:04.164Z,3.73
2023-03-16T12:23:36.634Z,3.20
2023-03-16T12:26:04.054Z,3.90
2023-03-16T12:28:36.113Z,3.20
2023-03-16T12:31:20.316Z,3.30
2023-03-16T12:34:09.218Z,3.30
2023-03-16T12:36:54.995Z,4.00
2023-03-16T12:39:51.593Z,3.40
2023-03-16T12:42:19.372Z,3.53
2023-03-16T12:44:48.257Z,3.40
2023-03-16T12:47:42.950Z,3.70
2023-03-16T12:50:19.804Z,2.63
2023-03-16T12:52:49.581Z,4.43
2023-03-16T12:55:25.135Z,2.70
2023-03-16T12:58:00.321Z,3.47
2023-03-16T13:00:40.657Z,3.33
2023-03-16T13:03:15.621Z,3.40
2023-03-16T13:05:55.627Z,3.37
2023-03-16T13:08:24.032Z,3.00
2023-03-16T13:11:06.341Z,3.00
2023-03-16T13:13:34.235Z,3.47
2023-03-16T13:16:10.166Z,3.20
2023-03-16T13:18:41.810Z,3.33
2023-03-16T13:21:21.537Z,3.53
2023-03-16T13:24:00.126Z,3.27
2023-03-16T13:26:38.547Z,3.07
2023-03-16T13:29:21.768Z,3.70
2023-03-16T13:31:49.413Z,3.50
2023-03-16T13:34:31.045Z,2.87
2023-03-16T13:36:59.843Z,3.37
2023-03-16T13:39:29.178Z,2.90
2023-03-16T13:41:59.880Z,3.10
2023-03-16T13:44:28.591Z,2.73
2023-03-16T13:46:55.432Z,2.83
2023-03-16T13:49:22.478Z,2.60
2023-03-16T13:51:49.502Z,2.80
2023-03-16T13:54:23.511Z,4.03
2023-03-16T13:56:58.569Z,3.20
2023-03-16T13:59:26.338Z,3.20
2023-03-16T14:02:03.698Z,3.57
2023-03-16T14:04:32.789Z,2.67
2023-03-16T14:07:03.747Z,2.87
2023-03-16T14:09:34.520Z,2.90
2023-03-16T14:12:02.372Z,3.00
2023-03-16T14:14:30.737Z,2.80
2023-03-16T14:17:11.333Z,2.97
2023-03-16T14:19:57.342Z,3.00
2023-03-16T14:22:31.047Z,2.60
2023-03-16T14:25:00.955Z,2.20
2023-03-16T14:27:45.385Z,2.70
2023-03-16T14:30:19.465Z,2.90
2023-03-16T14:32:58.518Z,3.10
2023-03-16T14:35:42.959Z,2.53
2023-03-16T14:38:22.668Z,2.23
2023-03-16T14:40:57.944Z,2.90
2023-03-16T14:43:30.779Z,2.70
2023-03-16T14:45:57.844Z,3.13
2023-03-16T14:48:25.198Z,2.93
2023-03-16T14:50:56.241Z,3.50
2023-03-16T14:53:24.676Z,3.43
2023-03-16T14:55:52.112Z,2.80
2023-03-16T14:58:18.796Z,3.00
2023-03-16T15:00:52.581Z,2.70
2023-03-16T15:03:33.142Z,3.10
2023-03-16T15:06:02.161Z,2.60
2023-03-16T15:08:32.842Z,3.37
2023-03-16T15:11:05.791Z,3.13
2023-03-16T15:13:42.073Z,3.00
2023-03-16T15:16:14.128Z,3.13
2023-03-16T15:18:41.948Z,3.40
2023-03-16T15:21:31.545Z,3.70
2023-03-16T15:24:01.414Z,3.03
2023-03-16T15:26:29.641Z,2.70
2023-03-16T15:28:57.387Z,2.60
2023-03-16T15:31:24.330Z,2.83
2023-03-16T15:33:51.477Z,2.57
2023-03-16T15:36:20.434Z,2.80
2023-03-16T15:38:49.800Z,2.90
2023-03-16T15:41:17.188Z,2.70
2023-03-16T15:43:45.980Z,3.17
2023-03-16T15:46:13.368Z,2.67
2023-03-16T15:48:40.514Z,2.63
2023-03-16T15:51:16.131Z,2.63
2023-03-16T15:53:47.950Z,2.57
2023-03-16T15:56:17.537Z,3.27
2023-03-16T15:58:46.765Z,3.37
2023-03-16T16:01:25.903Z,2.60
2023-03-16T16:03:54.303Z,2.70
2023-03-16T16:06:21.804Z,2.87
2023-03-16T16:08:48.812Z,3.60
2023-03-16T16:11:28.213Z,2.50
2023-03-16T16:13:56.769Z,2.77
2023-03-16T16:16:26.116Z,2.30
2023-03-16T16:18:52.846Z,2.20
2023-03-16T16:21:24.495Z,2.60
2023-03-16T16:23:52.144Z,2.50
2023-03-16T16:26:34.317Z,3.13
2023-03-16T16:29:18.935Z,2.60
2023-03-16T16:31:46.119Z,2.30
2023-03-16T16:34:15.678Z,2.60
2023-03-16T16:36:42.940Z,2.60
2023-03-16T16:39:09.719Z,2.33
2023-03-16T16:41:37.494Z,2.87
2023-03-16T16:44:08.291Z,2.70
2023-03-16T16:46:40.629Z,2.10
2023-03-16T16:49:17.728Z,2.67
2023-03-16T16:51:44.663Z,3.43
2023-03-16T16:54:21.224Z,2.70
2023-03-16T16:56:50.163Z,2.80
2023-03-16T16:59:36.887Z,2.70
2023-03-16T17:02:21.135Z,2.20
2023-03-16T17:04:50.658Z,2.80
2023-03-16T17:07:17.562Z,3.80
2023-03-16T17:09:44.689Z,3.67
2023-03-16T17:12:21.327Z,2.33
2023-03-16T17:14:49.625Z,2.60
2023-03-16T17:17:17.864Z,2.40
2023-03-16T17:19:46.582Z,3.27
2023-03-16T17:22:22.896Z,3.20
2023-03-16T17:24:49.634Z,2.67
2023-03-16T17:27:20.278Z,2.77
2023-03-16T17:29:47.545Z,2.80
2023-03-16T17:32:23.660Z,2.63
2023-03-16T17:34:51.271Z,2.70
2023-03-16T17:37:22.518Z,3.30
2023-03-16T17:39:49.665Z,2.83
2023-03-16T17:42:18.754Z,2.90
2023-03-16T17:44:48.665Z,3.30
2023-03-16T17:47:18.860Z,3.07
2023-03-16T17:49:48.627Z,3.60
2023-03-16T17:52:18.639Z,3.47
2023-03-16T17:54:47.743Z,3.43
2023-03-16T17:57:22.169Z,3.47
2023-03-16T17:59:48.893Z,3.53
2023-03-16T18:02:54.084Z,3.10
2023-03-16T18:05:27.213Z,3.23
2023-03-16T18:07:56.057Z,3.17
2023-03-16T18:10:29.097Z,3.50
2023-03-16T18:13:06.657Z,3.50
2023-03-16T18:15:36.559Z,3.50
2023-03-16T18:18:07.170Z,3.40
2023-03-16T18:20:36.629Z,3.10
2023-03-16T18:23:20.958Z,3.97
2023-03-16T18:25:50.001Z,3.63
2023-03-16T18:28:18.112Z,2.93
2023-03-16T18:30:48.011Z,3.27
2023-03-16T18:33:25.764Z,3.63
2023-03-16T18:35:54.148Z,3.50
2023-03-16T18:38:34.628Z,3.43
2023-03-16T18:41:13.272Z,3.60
2023-03-16T18:43:40.349Z,4.00
2023-03-16T18:46:27.949Z,7.47
2023-03-16T18:49:12.942Z,3.43
2023-03-16T18:51:40.356Z,3.23
2023-03-16T18:54:31.417Z,3.40
2023-03-16T18:56:58.956Z,3.57
2023-03-16T18:59:26.265Z,3.70
2023-03-16T19:01:54.153Z,3.23
2023-03-16T19:04:29.426Z,3.70
2023-03-16T19:06:57.328Z,3.27
2023-03-16T19:09:29.575Z,3.63
2023-03-16T19:11:57.567Z,3.50
2023-03-16T19:14:28.211Z,3.43
2023-03-16T19:16:56.094Z,4.30
2023-03-16T19:19:24.258Z,3.90
2023-03-16T19:22:18.619Z,3.97
2023-03-16T19:24:52.631Z,4.23
2023-03-16T19:27:30.803Z,4.37
2023-03-16T19:29:57.810Z,3.57
2023-03-16T19:32:24.716Z,3.90
2023-03-16T19:34:51.717Z,4.30
2023-03-16T19:37:19.762Z,4.10
2023-03-16T19:39:46.804Z,3.90
2023-03-16T19:42:36.297Z,4.23
2023-03-16T19:45:04.508Z,4.67
2023-03-16T19:47:34.676Z,4.70
2023-03-16T19:50:01.879Z,5.17
2023-03-16T19:52:31.230Z,5.00
2023-03-16T19:54:58.052Z,4.53
2023-03-16T19:57:25.304Z,4.33
2023-03-16T19:59:57.446Z,4.90
2023-03-16T20:02:35.455Z,4.40
2023-03-16T20:05:02.202Z,4.43
2023-03-16T20:07:29.203Z,4.90
2023-03-16T20:09:57.335Z,5.00
2023-03-16T20:12:28.697Z,4.87
2023-03-16T20:14:57.492Z,4.13
2023-03-16T20:17:29.663Z,4.77
2023-03-16T20:19:57.355Z,5.23
2023-03-16T20:22:26.153Z,5.23
2023-03-16T20:24:54.403Z,5.60
2023-03-16T20:27:23.090Z,4.70
2023-03-16T20:29:50.707Z,4.50
2023-03-16T20:32:21.118Z,5.17
2023-03-16T20:34:50.308Z,4.80
2023-03-16T20:37:28.588Z,5.40
2023-03-16T20:39:57.688Z,4.97
2023-03-16T20:42:31.545Z,5.00
2023-03-16T20:44:58.890Z,4.43
2023-03-16T20:47:26.701Z,4.60
2023-03-16T20:49:55.683Z,5.00
2023-03-16T20:52:30.614Z,4.53
2023-03-16T20:54:57.984Z,4.30
2023-03-16T20:57:27.082Z,4.83
2023-03-16T20:59:55.488Z,5.10
2023-03-16T21:02:29.475Z,4.07
2023-03-16T21:04:58.001Z,5.20
2023-03-16T21:07:24.990Z,5.10
2023-03-16T21:09:52.859Z,4.80
2023-03-16T21:12:33.546Z,4.70
2023-03-16T21:15:07.277Z,5.10
2023-03-16T21:17:38.991Z,4.30
2023-03-16T21:20:20.554Z,4.47
2023-03-16T21:22:47.449Z,4.37
2023-03-16T21:25:27.940Z,3.90
2023-03-16T21:28:03.548Z,4.73
2023-03-16T21:30:47.542Z,5.00
2023-03-16T21:33:33.231Z,4.37
2023-03-16T21:36:01.664Z,4.00
2023-03-16T21:38:30.308Z,4.57
2023-03-16T21:40:57.680Z,4.63
2023-03-16T21:43:24.665Z,3.97
2023-03-16T21:45:51.989Z,4.40
2023-03-16T21:48:20.581Z,4.40
2023-03-16T21:50:51.166Z,3.90
2023-03-16T21:53:30.940Z,4.23
2023-03-16T21:55:58.908Z,4.60
2023-03-16T21:58:26.049Z,4.70
2023-03-16T22:00:54.639Z,4.20
2023-03-16T22:03:29.553Z,4.30
2023-03-16T22:06:00.403Z,4.70
2023-03-16T22:08:30.668Z,4.50
2023-03-16T22:10:57.798Z,4.20
2023-03-16T22:13:26.451Z,4.80
2023-03-16T22:15:56.333Z,4.90
2023-03-16T22:18:33.413Z,3.93
2023-03-16T22:21:02.097Z,4.10
2023-03-16T22:23:30.848Z,4.50
2023-03-16T22:25:58.371Z,4.50
2023-03-16T22:28:26.399Z,5.30
2023-03-16T22:30:54.558Z,4.30
2023-03-16T22:33:28.205Z,4.30
2023-03-16T22:35:58.364Z,3.80
2023-03-16T22:38:25.491Z,4.60
2023-03-16T22:40:52.545Z,5.17
2023-03-16T22:43:21.922Z,3.87
2023-03-16T22:45:48.810Z,4.90
2023-03-16T22:48:24.456Z,4.57
2023-03-16T22:50:52.444Z,4.63
2023-03-16T22:53:40.941Z,4.70
2023-03-16T22:56:11.952Z,4.30
2023-03-16T22:58:56.194Z,4.87
2023-03-16T23:01:34.230Z,4.40
2023-03-16T23:04:02.021Z,4.43
2023-03-16T23:06:31.546Z,4.33
2023-03-16T23:08:59.262Z,4.60
2023-03-16T23:11:28.650Z,4.27
2023-03-16T23:13:55.783Z,4.33
2023-03-16T23:16:29.162Z,3.87
2023-03-16T23:18:56.720Z,4.03
2023-03-16T23:21:25.637Z,4.60
2023-03-16T23:24:03.101Z,4.70
2023-03-16T23:26:31.767Z,4.80
2023-03-16T23:28:58.633Z,4.40
2023-03-16T23:31:27.661Z,4.13
2023-03-16T23:33:54.470Z,4.40
2023-03-16T23:36:24.326Z,3.90
2023-03-16T23:38:51.752Z,4.20
2023-03-16T23:41:22.583Z,4.47
2023-03-16T23:43:50.968Z,4.80
2023-03-16T23:46:19.921Z,4.70
2023-03-16T23:48:49.077Z,4.47
2023-03-16T23:51:30.568Z,4.27
2023-03-16T23:53:57.969Z,4.00
2023-03-16T23:56:26.951Z,4.17
2023-03-16T23:58:57.795Z,4.47
